createdAt,value
2018-08-31T00:00:33.115Z,75.54
2018-08-31T00:01:44.223Z,75.44
2018-08-31T00:02:56.359Z,75.63
2018-08-31T00:04:06.435Z,75.63
2018-08-31T00:05:16.505Z,75.59
2018-08-31T00:06:26.585Z,75.49
2018-08-31T00:07:36.713Z,75.59
2018-08-31T00:08:46.508Z,75.59
2018-08-31T00:09:56.329Z,75.4
2018-08-31T00:11:05.609Z,75.31
2018-08-31T00:12:15.403Z,75.31
2018-08-31T00:13:25.472Z,75.59
2018-08-31T00:14:35.282Z,75.31
2018-08-31T00:15:45.356Z,75.4
2018-08-31T00:16:55.450Z,75.59
2018-08-31T00:18:05.606Z,75.4
2018-08-31T00:19:15.696Z,75.59
2018-08-31T00:20:25.798Z,75.4
2018-08-31T00:21:35.875Z,74.92
2018-08-31T00:22:45.942Z,75.59
2018-08-31T00:23:56.039Z,75.21
2018-08-31T00:25:05.850Z,75.4
2018-08-31T00:26:15.932Z,74.92
2018-08-31T00:27:26.018Z,75.4
2018-08-31T00:28:36.107Z,75.4
2018-08-31T00:29:46.185Z,75.54
2018-08-31T00:30:56.292Z,75.49
2018-08-31T00:32:06.100Z,75.4
2018-08-31T00:33:16.181Z,75.4
2018-08-31T00:34:26.256Z,75.4
2018-08-31T00:35:36.345Z,75.4
2018-08-31T00:36:46.436Z,75.24
2018-08-31T00:37:56.516Z,75.59
2018-08-31T00:39:06.594Z,75.31
2018-08-31T00:40:16.657Z,75.31
2018-08-31T00:41:26.741Z,75.59
2018-08-31T00:42:36.842Z,75.4
2018-08-31T00:43:46.941Z,75.49
2018-08-31T00:44:57.032Z,75.34
2018-08-31T00:46:07.106Z,75.69
2018-08-31T00:47:16.922Z,75.59
2018-08-31T00:48:26.724Z,75.4
2018-08-31T00:49:36.589Z,75.4
2018-08-31T00:50:46.399Z,75.54
2018-08-31T00:51:56.479Z,75.44
2018-08-31T00:53:06.547Z,75.44
2018-08-31T00:54:16.642Z,75.63
2018-08-31T00:55:26.760Z,75.44
2018-08-31T00:56:36.836Z,75.54
2018-08-31T00:57:46.898Z,75.44
2018-08-31T00:58:57.108Z,75.24
2018-08-31T01:00:07.181Z,75.44
2018-08-31T01:01:17.253Z,75.82
2018-08-31T01:02:27.336Z,75.44
2018-08-31T01:03:37.417Z,75.63
2018-08-31T01:04:47.485Z,75.34
2018-08-31T01:05:57.551Z,75.34
2018-08-31T01:07:07.687Z,75.73
2018-08-31T01:08:17.768Z,75.73
2018-08-31T01:09:27.303Z,75.63
2018-08-31T01:10:37.370Z,75.63
2018-08-31T01:11:47.454Z,75.63
2018-08-31T01:12:57.575Z,75.59
2018-08-31T01:14:07.662Z,75.54
2018-08-31T01:15:17.734Z,75.54
2018-08-31T01:16:27.810Z,75.63
2018-08-31T01:17:37.899Z,75.54
2018-08-31T01:18:47.988Z,75.73
2018-08-31T01:19:57.790Z,75.63
2018-08-31T01:21:08.059Z,75.73
2018-08-31T01:22:18.140Z,75.63
2018-08-31T01:23:28.204Z,75.34
2018-08-31T01:24:38.344Z,75.24
2018-08-31T01:25:48.418Z,75.44
2018-08-31T01:26:58.249Z,75.54
2018-08-31T01:28:08.342Z,75.63
2018-08-31T01:29:18.146Z,75.63
2018-08-31T01:30:28.226Z,75.54
2018-08-31T01:31:38.308Z,75.54
2018-08-31T01:32:48.123Z,75.63
2018-08-31T01:33:58.221Z,75.44
2018-08-31T01:35:08.056Z,75.54
2018-08-31T01:36:18.134Z,75.44
2018-08-31T01:37:28.212Z,75.59
2018-08-31T01:38:38.027Z,75.98
2018-08-31T01:39:47.822Z,76.07
2018-08-31T01:40:57.909Z,76.07
2018-08-31T01:42:08.077Z,75.79
2018-08-31T01:43:17.897Z,75.79
2018-08-31T01:44:27.983Z,75.79
2018-08-31T01:45:37.793Z,75.69
2018-08-31T01:46:47.846Z,76.17
2018-08-31T01:47:57.928Z,75.65
2018-08-31T01:49:08.088Z,75.79
2018-08-31T01:50:18.150Z,76.42
2018-08-31T01:51:28.215Z,76.14
2018-08-31T01:52:38.100Z,75.75
2018-08-31T01:53:48.466Z,76.04
2018-08-31T01:54:58.528Z,76.14
2018-08-31T01:56:08.615Z,75.75
2018-08-31T01:57:18.696Z,76.14
2018-08-31T01:58:28.776Z,75.65
2018-08-31T01:59:38.593Z,75.65
2018-08-31T02:00:48.660Z,75.65
2018-08-31T02:01:58.717Z,75.65
2018-08-31T02:03:08.533Z,76.04
2018-08-31T02:04:18.836Z,75.94
2018-08-31T02:05:29.062Z,75.75
2018-08-31T02:06:39.145Z,75.84
2018-08-31T02:07:49.221Z,75.84
2018-08-31T02:08:59.300Z,75.75
2018-08-31T02:10:09.114Z,75.81
2018-08-31T02:11:19.203Z,75.71
2018-08-31T02:12:29.264Z,75.9
2018-08-31T02:13:39.059Z,75.71
2018-08-31T02:14:49.134Z,75.81
2018-08-31T02:15:59.213Z,75.71
2018-08-31T02:17:09.532Z,75.71
2018-08-31T02:18:19.613Z,75.71
2018-08-31T02:19:29.683Z,75.81
2018-08-31T02:20:39.479Z,75.81
2018-08-31T02:21:49.546Z,75.81
2018-08-31T02:22:59.676Z,75.9
2018-08-31T02:24:09.744Z,75.9
2018-08-31T02:25:19.824Z,75.71
2018-08-31T02:26:29.624Z,75.71
2018-08-31T02:27:39.696Z,75.77
2018-08-31T02:28:49.548Z,75.67
2018-08-31T02:29:59.609Z,75.81
2018-08-31T02:31:09.685Z,75.81
2018-08-31T02:32:19.749Z,75.81
2018-08-31T02:33:29.815Z,76
2018-08-31T02:34:39.898Z,76
2018-08-31T02:35:49.697Z,76
2018-08-31T02:36:59.766Z,75.87
2018-08-31T02:38:09.844Z,75.67
2018-08-31T02:39:20.007Z,75.48
2018-08-31T02:40:30.142Z,75.67
2018-08-31T02:41:39.950Z,75.67
2018-08-31T02:42:50.028Z,75.67
2018-08-31T02:44:00.117Z,75.67
2018-08-31T02:45:10.205Z,75.87
2018-08-31T02:46:20.289Z,75.96
2018-08-31T02:47:30.362Z,75.67
2018-08-31T02:48:40.444Z,75.67
2018-08-31T02:49:50.518Z,75.77
2018-08-31T02:51:00.725Z,75.67
2018-08-31T02:52:10.854Z,75.67
2018-08-31T02:53:20.948Z,75.77
2018-08-31T02:54:31.006Z,75.77
2018-08-31T02:55:40.820Z,75.77
2018-08-31T02:56:50.884Z,75.77
2018-08-31T02:58:01.017Z,75.67
2018-08-31T02:59:11.103Z,75.67
2018-08-31T03:00:21.182Z,75.96
2018-08-31T03:01:31.266Z,75.77
2018-08-31T03:02:41.338Z,75.67
2018-08-31T03:34:52.440Z,70.5
2018-08-31T03:36:02.261Z,71.17
2018-08-31T03:37:12.324Z,71.56
2018-08-31T03:38:22.127Z,72.32
2018-08-31T03:39:32.201Z,72.99
2018-08-31T03:40:42.275Z,73.38
2018-08-31T03:41:52.352Z,73.38
2018-08-31T03:43:02.461Z,73.8
2018-08-31T03:44:12.271Z,74.18
2018-08-31T03:45:22.348Z,74.66
2018-08-31T03:46:32.417Z,74.66
2018-08-31T03:47:42.505Z,74.37
2018-08-31T03:48:52.046Z,75.08
2018-08-31T03:50:01.597Z,75.27
2018-08-31T03:51:11.154Z,75.18
2018-08-31T03:52:21.306Z,75.27
2018-08-31T03:53:31.117Z,75.37
2018-08-31T03:54:41.222Z,75.37
2018-08-31T03:55:51.306Z,75.21
2018-08-31T03:57:01.430Z,75.7
2018-08-31T03:58:11.519Z,75.79
2018-08-31T03:59:21.351Z,75.5
2018-08-31T04:00:31.449Z,75.5
2018-08-31T04:01:41.039Z,75.7
2018-08-31T04:02:51.152Z,75.79
2018-08-31T04:04:01.233Z,75.54
2018-08-31T04:05:11.312Z,75.5
2018-08-31T04:06:21.397Z,75.7
2018-08-31T04:07:31.211Z,75.54
2018-08-31T04:08:41.289Z,75.73
2018-08-31T04:09:51.365Z,75.63
2018-08-31T04:11:01.436Z,75.73
2018-08-31T04:12:11.499Z,75.73
2018-08-31T04:13:21.577Z,75.63
2018-08-31T04:14:31.656Z,75.73
2018-08-31T04:15:41.749Z,75.54
2018-08-31T04:16:51.812Z,75.63
2018-08-31T04:18:01.883Z,75.54
2018-08-31T04:19:11.693Z,75.54
2018-08-31T04:20:21.839Z,75.06
2018-08-31T04:21:31.947Z,75.35
2018-08-31T04:22:42.033Z,75.15
2018-08-31T04:23:52.116Z,75.35
2018-08-31T04:25:02.235Z,75.35
2018-08-31T04:26:11.780Z,75.25
2018-08-31T04:27:21.064Z,75.29
2018-08-31T04:28:31.133Z,75.29
2018-08-31T04:29:41.204Z,75.29
2018-08-31T04:30:51.268Z,75.48
2018-08-31T04:32:01.148Z,75.48
2018-08-31T04:33:10.983Z,75.67
2018-08-31T04:34:20.807Z,74.33
2018-08-31T04:35:30.869Z,74.9
2018-08-31T04:36:40.705Z,74.27
2018-08-31T04:37:50.768Z,73.83
2018-08-31T04:39:00.896Z,73.25
2018-08-31T04:40:10.962Z,73.47
2018-08-31T04:41:20.794Z,72.9
2018-08-31T04:42:30.885Z,73.51
2018-08-31T04:43:41.017Z,72.74
2018-08-31T04:44:50.828Z,73.22
2018-08-31T04:46:00.889Z,72.49
2018-08-31T04:47:10.975Z,72.88
2018-08-31T04:48:20.253Z,72.72
2018-08-31T04:49:29.813Z,72.33
2018-08-31T04:50:39.635Z,72.53
2018-08-31T04:51:49.462Z,72.18
2018-08-31T04:52:59.255Z,72.08
2018-08-31T04:54:09.072Z,71.6
2018-08-31T04:55:18.892Z,71.79
2018-08-31T04:56:29.025Z,71.83
2018-08-31T04:57:39.104Z,71.73
2018-08-31T04:58:49.228Z,72.02
2018-08-31T04:59:59.397Z,72.12
2018-08-31T05:01:09.214Z,72.06
2018-08-31T05:02:19.358Z,72.15
2018-08-31T05:03:29.438Z,71.96
2018-08-31T05:04:39.517Z,71.8
2018-08-31T05:05:49.589Z,71.77
2018-08-31T05:06:59.408Z,71.7
2018-08-31T05:08:09.477Z,71.61
2018-08-31T05:09:19.043Z,71.61
2018-08-31T05:10:28.871Z,71.7
2018-08-31T05:11:38.933Z,71.84
2018-08-31T05:12:48.777Z,71.64
2018-08-31T05:13:58.924Z,71.64
2018-08-31T05:15:09.009Z,71.84
2018-08-31T05:16:19.101Z,71.88
2018-08-31T05:17:29.171Z,71.88
2018-08-31T05:18:38.993Z,71.48
2018-08-31T05:19:49.103Z,71.58
2018-08-31T05:20:59.173Z,71.72
2018-08-31T05:22:08.968Z,71.62
2018-08-31T05:23:18.897Z,71.62
2018-08-31T05:24:28.975Z,72.2
2018-08-31T05:25:38.853Z,71.84
2018-08-31T05:26:48.676Z,71.81
2018-08-31T05:27:58.741Z,73.07
2018-08-31T05:29:08.565Z,73.42
2018-08-31T05:30:18.662Z,74.1
2018-08-31T05:31:28.503Z,74.35
2018-08-31T05:32:38.579Z,74.06
2018-08-31T05:33:48.649Z,74.41
2018-08-31T05:34:58.720Z,74.69
2018-08-31T05:36:08.280Z,74.79
2018-08-31T05:37:18.431Z,74.51
2018-08-31T05:38:28.493Z,74.02
2018-08-31T05:39:38.577Z,73.19
2018-08-31T05:40:48.390Z,73.52
2018-08-31T05:41:58.490Z,73.13
2018-08-31T05:43:08.659Z,73.52
2018-08-31T05:44:18.754Z,73.52
2018-08-31T05:45:28.839Z,73.96
2018-08-31T05:46:38.669Z,73.77
2018-08-31T05:47:48.742Z,74.51
2018-08-31T05:48:58.834Z,74.51
2018-08-31T05:50:08.909Z,74.79
2018-08-31T05:51:18.972Z,74.79
2018-08-31T05:52:29.052Z,75.09
2018-08-31T05:53:39.306Z,73.83
2018-08-31T05:54:49.312Z,73.35
2018-08-31T05:55:59.383Z,73.93
2018-08-31T05:57:09.210Z,73.63
2018-08-31T05:58:19.038Z,73.93
2018-08-31T05:59:28.846Z,73.93
2018-08-31T06:00:38.708Z,74.12
2018-08-31T06:01:48.255Z,74.12
2018-08-31T06:02:58.339Z,73.63
2018-08-31T06:04:08.154Z,73.63
2018-08-31T06:05:18.258Z,73.63
2018-08-31T06:06:28.322Z,73.54
2018-08-31T06:07:38.393Z,73.93
2018-08-31T06:08:48.206Z,74.02
2018-08-31T06:09:58.298Z,74.21
2018-08-31T06:11:08.362Z,73.93
2018-08-31T06:12:18.541Z,73.93
2018-08-31T06:13:28.625Z,74.31
2018-08-31T06:14:38.437Z,73.35
2018-08-31T06:15:48.523Z,73.73
2018-08-31T06:16:58.605Z,74.12
2018-08-31T06:18:08.735Z,74.12
2018-08-31T06:19:18.801Z,74.12
2018-08-31T06:20:28.631Z,73.93
2018-08-31T06:21:38.438Z,74.02
2018-08-31T06:22:48.508Z,74.31
2018-08-31T06:23:58.574Z,74.31
2018-08-31T06:25:08.383Z,73.93
2018-08-31T06:26:18.482Z,74.31
2018-08-31T06:27:28.583Z,74.12
2018-08-31T06:28:38.447Z,74.02
2018-08-31T06:29:48.551Z,73.99
2018-08-31T06:30:58.635Z,74.02
2018-08-31T06:32:08.698Z,73.93
2018-08-31T06:33:18.778Z,74.21
2018-08-31T06:34:28.850Z,73.63
2018-08-31T06:35:38.949Z,73.83
2018-08-31T06:36:49.028Z,73.63
2018-08-31T06:37:59.125Z,73.63
2018-08-31T06:39:09.204Z,73.35
2018-08-31T06:40:19.294Z,73.54
2018-08-31T06:41:29.156Z,73.73
2018-08-31T06:42:39.233Z,73.63
2018-08-31T06:43:49.307Z,73.67
2018-08-31T06:44:59.383Z,73.58
2018-08-31T06:46:09.456Z,73.58
2018-08-31T06:47:19.544Z,73.67
2018-08-31T06:48:29.601Z,73.96
2018-08-31T06:49:39.671Z,73.48
2018-08-31T06:50:49.743Z,73.58
2018-08-31T06:51:59.814Z,73.67
2018-08-31T06:53:09.691Z,73.67
2018-08-31T06:54:19.770Z,73.96
2018-08-31T06:55:29.844Z,73.77
2018-08-31T06:56:39.925Z,73.67
2018-08-31T06:57:50.029Z,73.67
2018-08-31T06:59:00.367Z,73.67
2018-08-31T07:00:10.453Z,73.67
2018-08-31T07:01:20.544Z,73.8
2018-08-31T07:02:30.614Z,74
2018-08-31T07:03:40.528Z,74.1
2018-08-31T07:04:51.097Z,74
2018-08-31T07:06:01.167Z,73.9
2018-08-31T07:07:10.964Z,74
2018-08-31T07:08:21.040Z,74
2018-08-31T07:09:30.852Z,74.29
2018-08-31T07:10:41.003Z,74
2018-08-31T07:11:51.089Z,74
2018-08-31T07:13:01.159Z,74.19
2018-08-31T07:14:11.014Z,73.9
2018-08-31T07:15:21.107Z,73.84
2018-08-31T07:16:30.918Z,73.94
2018-08-31T07:17:40.979Z,73.94
2018-08-31T07:18:51.056Z,73.94
2018-08-31T07:20:01.142Z,74.13
2018-08-31T07:21:11.228Z,74.23
2018-08-31T07:22:21.302Z,74.13
2018-08-31T07:23:31.393Z,73.94
2018-08-31T07:24:41.516Z,73.97
2018-08-31T07:25:51.672Z,73.88
2018-08-31T07:27:01.767Z,74.36
2018-08-31T07:28:11.844Z,74.27
2018-08-31T07:29:21.925Z,74.17
2018-08-31T07:30:32.010Z,74.27
2018-08-31T07:31:41.821Z,73.43
2018-08-31T07:32:51.930Z,73.43
2018-08-31T07:34:02.053Z,73.33
2018-08-31T07:35:12.150Z,73.43
2018-08-31T07:36:22.473Z,73.43
2018-08-31T07:37:32.470Z,74.3
2018-08-31T07:38:42.554Z,74.21
2018-08-31T07:39:52.693Z,74.01
2018-08-31T07:41:03.382Z,74.3
2018-08-31T07:42:15.421Z,74.3
2018-08-31T07:43:28.084Z,74.01
2018-08-31T07:44:40.330Z,74.3
2018-08-31T07:45:52.806Z,73.91
2018-08-31T07:47:03.962Z,74.3
2018-08-31T07:48:16.023Z,73.91
2018-08-31T07:49:28.285Z,74.11
2018-08-31T07:50:40.048Z,74.21
2018-08-31T07:51:52.479Z,74.01
2018-08-31T07:53:03.838Z,74.11
2018-08-31T07:54:16.071Z,73.91
2018-08-31T07:55:27.615Z,74.01
2018-08-31T07:56:39.279Z,73.33
2018-08-31T07:57:50.995Z,74.21
2018-08-31T07:59:01.114Z,73.37
2018-08-31T08:00:11.200Z,73.57
2018-08-31T08:01:21.329Z,73.57
2018-08-31T08:02:31.746Z,73.95
2018-08-31T08:03:41.923Z,74.05
2018-08-31T08:04:52.033Z,74.05
2018-08-31T08:06:02.149Z,73.31
2018-08-31T08:07:12.273Z,73.31
2018-08-31T08:08:22.588Z,73.79
2018-08-31T08:09:32.675Z,73.5
2018-08-31T08:10:42.585Z,73.89
2018-08-31T08:11:52.406Z,73.89
2018-08-31T08:13:02.342Z,73.89
2018-08-31T08:14:11.980Z,73.79
2018-08-31T08:15:21.825Z,73.79
2018-08-31T08:16:31.926Z,73.89
2018-08-31T08:17:42.026Z,73.69
2018-08-31T08:18:52.118Z,73.02
2018-08-31T08:20:02.283Z,73.41
2018-08-31T08:21:12.383Z,73.15
2018-08-31T08:22:22.991Z,73.25
2018-08-31T08:23:33.116Z,73.28
2018-08-31T08:24:43.175Z,72.8
2018-08-31T08:25:53.312Z,72.8
2018-08-31T08:27:03.399Z,72.64
2018-08-31T08:28:13.570Z,72.35
2018-08-31T08:29:24.047Z,73.13
2018-08-31T08:30:33.904Z,73.22
2018-08-31T08:31:44.055Z,72.83
2018-08-31T08:32:54.251Z,72.67
2018-08-31T08:34:04.680Z,72.39
2018-08-31T08:35:14.562Z,72.49
2018-08-31T08:36:24.666Z,73.07
2018-08-31T08:37:34.813Z,73.46
2018-08-31T08:38:44.623Z,73.03
2018-08-31T08:39:54.458Z,73.13
2018-08-31T08:41:04.587Z,73.52
2018-08-31T08:42:14.994Z,73.42
2018-08-31T08:43:24.841Z,73.42
2018-08-31T08:44:34.956Z,73.22
2018-08-31T08:45:45.033Z,73.32
2018-08-31T08:46:55.135Z,72.87
2018-08-31T08:48:05.223Z,73.26
2018-08-31T08:49:15.270Z,72.52
2018-08-31T08:50:25.099Z,72.45
2018-08-31T08:51:35.192Z,72.17
2018-08-31T08:52:45.287Z,72.11
2018-08-31T08:53:55.109Z,71.62
2018-08-31T08:56:30.026Z,71.52
2018-08-31T08:57:40.128Z,71.33
2018-08-31T08:58:50.240Z,71.36
2018-08-31T09:00:00.418Z,71.85
2018-08-31T09:01:25.562Z,71.56
2018-08-31T09:02:35.431Z,71.46
2018-08-31T09:03:45.277Z,71.59
2018-08-31T09:04:55.383Z,71.98
2018-08-31T09:06:05.452Z,71.98
2018-08-31T09:07:15.529Z,71.62
2018-08-31T09:08:25.680Z,71.04
2018-08-31T09:18:59.072Z,71.6
2018-08-31T09:20:09.307Z,71.5
2018-08-31T09:21:19.263Z,71.95
2018-08-31T09:22:29.346Z,71.66
2018-08-31T09:23:39.233Z,71.76
2018-08-31T09:24:49.255Z,72.44
2018-08-31T09:25:59.081Z,72.34
2018-08-31T09:27:08.919Z,72.7
2018-08-31T09:28:19.053Z,72.56
2018-08-31T09:29:29.344Z,73.05
2018-08-31T09:30:39.200Z,72.96
2018-08-31T09:31:49.306Z,73.69
2018-08-31T09:32:59.423Z,73.21
2018-08-31T09:34:09.498Z,73.4
2018-08-31T09:35:19.055Z,73.27
2018-08-31T09:36:28.870Z,73.27
2018-08-31T09:37:38.963Z,73.08
2018-08-31T09:38:48.773Z,73.6
2018-08-31T09:39:58.913Z,72.92
2018-08-31T09:41:09.000Z,72.33
2018-08-31T09:42:19.081Z,72.47
2018-08-31T09:43:28.887Z,71.98
2018-08-31T09:44:38.993Z,71.62
2018-08-31T09:45:49.111Z,71.43
2018-08-31T09:46:59.249Z,71.66
2018-08-31T09:48:09.113Z,71.41
2018-08-31T09:49:18.940Z,70.66
2018-08-31T09:50:29.089Z,70.89
2018-08-31T09:51:39.223Z,69.95
2018-08-31T09:52:49.397Z,69.75
2018-08-31T09:53:58.699Z,69.89
2018-08-31T09:55:08.834Z,69.89
2018-08-31T09:56:18.951Z,70.18
2018-08-31T09:57:29.122Z,70.67
2018-08-31T09:58:39.671Z,70.24
2018-08-31T09:59:49.783Z,70.34
2018-08-31T10:00:59.887Z,70.83
2018-08-31T10:02:09.704Z,70.92
2018-08-31T10:03:19.520Z,70.34
2018-08-31T10:04:29.352Z,70.63
2018-08-31T10:05:39.452Z,70.92
2018-08-31T10:06:49.552Z,71.02
2018-08-31T10:07:59.649Z,71.31
2018-08-31T10:09:09.735Z,71.51
2018-08-31T10:10:19.597Z,71.02
2018-08-31T10:11:29.739Z,71.51
2018-08-31T10:12:39.834Z,71.77
2018-08-31T10:13:49.903Z,71.83
2018-08-31T10:14:59.969Z,72.41
2018-08-31T10:16:09.794Z,72.51
2018-08-31T10:17:19.886Z,72.02
2018-08-31T10:18:30.040Z,71.73
2018-08-31T10:19:39.978Z,71.96
2018-08-31T10:20:50.064Z,71.37
2018-08-31T10:22:00.145Z,71.22
2018-08-31T10:23:09.972Z,71.12
2018-08-31T10:24:20.161Z,71.06
2018-08-31T10:25:30.280Z,70.8
2018-08-31T10:26:40.368Z,70.51
2018-08-31T10:27:50.174Z,70.61
2018-08-31T10:29:00.408Z,70.83
2018-08-31T10:30:10.131Z,70.83
2018-08-31T10:31:20.300Z,70.15
2018-08-31T10:32:30.385Z,69.99
2018-08-31T10:33:40.470Z,69.7
2018-08-31T10:34:50.592Z,69.99
2018-08-31T10:36:00.937Z,69.7
2018-08-31T10:37:11.042Z,69.99
2018-08-31T10:38:21.143Z,69.99
2018-08-31T10:39:31.228Z,70.12
2018-08-31T10:40:41.333Z,70.21
2018-08-31T10:41:51.163Z,70.12
2018-08-31T10:43:01.009Z,70.25
2018-08-31T10:44:11.102Z,70.06
2018-08-31T10:45:21.189Z,70.06
2018-08-31T10:46:30.928Z,69.96
2018-08-31T10:47:41.476Z,69.76
2018-08-31T10:48:51.583Z,70.35
2018-08-31T10:50:01.696Z,70.7
2018-08-31T10:51:11.809Z,70.51
2018-08-31T10:52:21.918Z,70.61
2018-08-31T10:53:32.115Z,71
2018-08-31T10:54:42.200Z,71.1
2018-08-31T10:55:52.306Z,71.26
2018-08-31T10:57:02.897Z,71.65
2018-08-31T10:58:13.000Z,71.61
2018-08-31T10:59:22.842Z,71.81
2018-08-31T11:00:32.949Z,72.46
2018-08-31T11:01:43.072Z,72.62
2018-08-31T11:02:53.354Z,72.97
2018-08-31T11:04:03.810Z,72.68
2018-08-31T11:05:13.634Z,72.68
2018-08-31T11:06:23.459Z,72.78
2018-08-31T11:07:33.563Z,72.45
2018-08-31T11:08:43.395Z,72.64
2018-08-31T11:09:53.242Z,72.58
2018-08-31T11:11:03.383Z,71.7
2018-08-31T11:12:13.461Z,72.09
2018-08-31T11:13:23.572Z,72.09
2018-08-31T11:14:33.423Z,71.12
2018-08-31T11:15:43.578Z,71.55
2018-08-31T11:16:53.664Z,71.25
2018-08-31T11:18:03.771Z,71.45
2018-08-31T11:19:13.614Z,71.35
2018-08-31T11:20:23.720Z,71.45
2018-08-31T11:21:33.825Z,71.35
2018-08-31T11:22:43.916Z,71.55
2018-08-31T11:23:54.128Z,71.29
2018-08-31T11:25:04.284Z,71.39
2018-08-31T11:26:14.393Z,71.39
2018-08-31T11:27:24.504Z,71.58
2018-08-31T11:28:34.335Z,71.58
2018-08-31T11:29:44.419Z,71.39
2018-08-31T11:30:54.510Z,71.09
2018-08-31T11:32:04.379Z,71.39
2018-08-31T11:33:14.554Z,71.39
2018-08-31T11:34:24.667Z,71.42
2018-08-31T11:35:34.509Z,71.39
2018-08-31T11:36:44.435Z,71.39
2018-08-31T11:37:54.572Z,71.58
2018-08-31T11:39:04.224Z,71.09
2018-08-31T11:40:14.348Z,71.29
2018-08-31T11:41:24.261Z,71.78
2018-08-31T11:42:33.845Z,72.23
2018-08-31T11:43:43.685Z,71.94
2018-08-31T11:44:53.994Z,72.39
2018-08-31T11:46:04.108Z,72.97
2018-08-31T11:47:14.005Z,72.78
2018-08-31T11:48:23.968Z,72.84
2018-08-31T11:49:34.166Z,72.84
2018-08-31T11:50:44.047Z,72.64
2018-08-31T11:51:54.205Z,72.84
2018-08-31T11:53:04.089Z,72.9
2018-08-31T11:54:14.318Z,72.41
2018-08-31T11:55:24.502Z,72.61
2018-08-31T11:56:34.622Z,72.9
2018-08-31T11:57:44.731Z,72.8
2018-08-31T11:58:54.821Z,72.41
2018-08-31T12:00:04.965Z,72.31
2018-08-31T12:01:15.152Z,71.67
2018-08-31T12:02:25.506Z,71.18
2018-08-31T12:03:35.587Z,70.83
2018-08-31T12:04:45.711Z,70.41
2018-08-31T12:05:55.816Z,70.31
2018-08-31T12:07:05.666Z,70.83
2018-08-31T12:08:15.775Z,70.44
2018-08-31T12:09:25.871Z,70.44
2018-08-31T12:10:35.986Z,71.03
2018-08-31T12:11:46.140Z,71.09
2018-08-31T12:12:56.051Z,70.8
2018-08-31T12:14:06.138Z,71.22
2018-08-31T12:15:15.699Z,71.03
2018-08-31T12:16:25.794Z,71.03
2018-08-31T12:17:35.866Z,71.22
2018-08-31T12:18:46.009Z,71.42
2018-08-31T12:19:56.116Z,71.65
2018-08-31T12:21:06.189Z,71.61
2018-08-31T12:22:16.424Z,72.17
2018-08-31T12:23:26.564Z,71.78
2018-08-31T12:24:36.658Z,71.68
2018-08-31T12:25:46.785Z,71.64
2018-08-31T12:26:56.614Z,71.68
2018-08-31T12:28:06.726Z,71.88
2018-08-31T12:29:16.826Z,71.09
2018-08-31T12:30:27.220Z,71.58
2018-08-31T12:31:37.050Z,71.51
2018-08-31T12:32:47.154Z,71.32
2018-08-31T12:33:57.255Z,71.12
2018-08-31T12:35:07.077Z,71.42
2018-08-31T12:36:17.186Z,71.88
2018-08-31T12:37:27.321Z,71.81
2018-08-31T12:38:37.427Z,71.78
2018-08-31T12:39:46.990Z,72.07
2018-08-31T12:40:57.081Z,72.2
2018-08-31T12:42:06.902Z,72.27
2018-08-31T12:43:16.988Z,71.97
2018-08-31T12:44:27.099Z,72.07
2018-08-31T12:45:36.953Z,71.42
2018-08-31T12:46:47.034Z,71.42
2018-08-31T12:47:56.919Z,71.16
2018-08-31T12:49:07.028Z,71.39
2018-08-31T12:50:17.132Z,71.16
2018-08-31T12:51:26.952Z,71.49
2018-08-31T12:52:37.048Z,71.69
2018-08-31T12:53:46.889Z,71.06
2018-08-31T12:54:57.002Z,71.16
2018-08-31T12:56:06.838Z,71.65
2018-08-31T12:57:16.937Z,72.14
2018-08-31T12:58:27.064Z,72.24
2018-08-31T12:59:37.224Z,71.71
2018-08-31T13:00:47.083Z,72.59
2018-08-31T13:01:57.179Z,72.78
2018-08-31T13:03:07.288Z,72.46
2018-08-31T13:04:17.401Z,72.95
2018-08-31T13:05:27.285Z,72.85
2018-08-31T13:06:37.669Z,72.75
2018-08-31T13:07:47.839Z,72.91
2018-08-31T13:08:57.922Z,72.91
2018-08-31T13:10:08.129Z,73.07
2018-08-31T13:11:18.298Z,73.17
2018-08-31T13:12:28.395Z,73.07
2018-08-31T13:13:38.735Z,73.72
2018-08-31T13:14:48.846Z,73.52
2018-08-31T13:15:59.031Z,73.39
2018-08-31T13:17:08.909Z,73.58
2018-08-31T13:18:19.017Z,73.68
2018-08-31T13:19:28.866Z,73.58
2018-08-31T13:20:38.988Z,73.29
2018-08-31T13:21:49.098Z,73.29
2018-08-31T13:22:58.982Z,73.19
2018-08-31T13:24:09.067Z,73.29
2018-08-31T13:25:18.980Z,73.49
2018-08-31T13:26:29.458Z,73.94
2018-08-31T13:27:39.554Z,73.55
2018-08-31T13:28:49.711Z,73.35
2018-08-31T13:29:59.808Z,73.35
2018-08-31T13:31:10.073Z,73.71
2018-08-31T13:32:20.644Z,73.51
2018-08-31T13:33:30.737Z,73.22
2018-08-31T13:34:41.132Z,73.9
2018-08-31T13:35:51.253Z,73.55
2018-08-31T13:37:01.337Z,73.25
2018-08-31T13:38:11.530Z,72.86
2018-08-31T13:39:21.505Z,73.1
2018-08-31T13:40:31.668Z,72.8
2018-08-31T13:41:41.492Z,72.25
2018-08-31T13:42:51.664Z,72.35
2018-08-31T13:44:01.642Z,72.49
2018-08-31T13:45:12.008Z,72.58
2018-08-31T13:46:22.178Z,72.39
2018-08-31T13:47:31.754Z,72.09
2018-08-31T13:48:41.582Z,72.39
2018-08-31T13:49:51.717Z,72.29
2018-08-31T13:51:01.831Z,72.49
2018-08-31T13:52:11.704Z,72.58
2018-08-31T13:53:21.538Z,72.49
2018-08-31T13:54:31.641Z,72.58
2018-08-31T13:55:41.460Z,72.39
2018-08-31T13:56:51.034Z,72.58
2018-08-31T13:58:01.215Z,72.49
2018-08-31T13:59:11.107Z,72.88
2018-08-31T14:00:21.222Z,72.68
2018-08-31T14:01:31.049Z,72.97
2018-08-31T14:02:41.167Z,72.88
2018-08-31T14:03:51.190Z,72.58
2018-08-31T14:05:01.338Z,72.58
2018-08-31T14:06:11.441Z,72.58
2018-08-31T14:07:21.541Z,72.49
2018-08-31T14:08:31.626Z,72.88
2018-08-31T14:09:41.767Z,72.88
2018-08-31T14:10:51.880Z,72.97
2018-08-31T14:12:01.983Z,72.68
2018-08-31T14:13:11.555Z,72.78
2018-08-31T14:14:21.661Z,73.07
2018-08-31T14:15:31.640Z,72.88
2018-08-31T14:16:41.968Z,72.58
2018-08-31T14:17:52.048Z,72.97
2018-08-31T14:19:01.893Z,72.49
2018-08-31T14:20:11.974Z,72.97
2018-08-31T14:21:22.068Z,72.97
2018-08-31T14:22:31.892Z,72.13
2018-08-31T14:23:41.734Z,71.74
2018-08-31T14:24:51.838Z,72.17
2018-08-31T14:26:01.924Z,71.88
2018-08-31T14:27:12.076Z,72.07
2018-08-31T14:28:21.915Z,72.07
2018-08-31T14:29:32.120Z,72.46
2018-08-31T14:30:42.589Z,72.81
2018-08-31T14:31:52.711Z,73.46
2018-08-31T14:33:02.271Z,73.85
2018-08-31T14:34:12.407Z,73.52
2018-08-31T14:35:22.266Z,74.46
2018-08-31T14:36:32.193Z,73.78
2018-08-31T14:37:42.783Z,74.17
2018-08-31T14:38:52.881Z,73.94
2018-08-31T14:40:02.446Z,73.49
2018-08-31T14:41:12.549Z,73.58
2018-08-31T14:42:22.613Z,73.97
2018-08-31T14:43:32.977Z,73.74
2018-08-31T14:44:42.813Z,73.25
2018-08-31T14:45:52.918Z,73.45
2018-08-31T14:47:03.019Z,73.97
2018-08-31T14:48:13.101Z,73.68
2018-08-31T14:49:22.961Z,73.39
2018-08-31T14:50:33.079Z,74.04
2018-08-31T14:51:43.439Z,73.84
2018-08-31T14:52:53.326Z,74.13
2018-08-31T14:54:03.465Z,73.8
2018-08-31T14:55:13.574Z,74.58
2018-08-31T14:56:23.689Z,74.29
2018-08-31T14:57:33.819Z,74.65
2018-08-31T14:58:44.784Z,74.65
2018-08-31T14:59:54.994Z,74.55
2018-08-31T15:01:05.076Z,74.41
2018-08-31T15:02:15.159Z,74.71
2018-08-31T15:03:25.275Z,74.9
2018-08-31T15:04:35.362Z,75.64
2018-08-31T15:05:45.502Z,75.35
2018-08-31T15:06:55.899Z,75.25
2018-08-31T15:08:05.989Z,75.25
2018-08-31T15:09:16.098Z,75.12
2018-08-31T15:10:25.728Z,75.7
2018-08-31T15:11:35.819Z,75.31
2018-08-31T15:12:45.913Z,75.6
2018-08-31T15:13:56.168Z,75.21
2018-08-31T15:15:06.253Z,75.41
2018-08-31T15:16:16.441Z,75.31
2018-08-31T15:17:27.007Z,75.31
2018-08-31T15:18:37.350Z,74.82
2018-08-31T15:19:47.460Z,75.12
2018-08-31T15:20:57.559Z,74.67
2018-08-31T15:22:07.436Z,74.48
2018-08-31T15:23:17.275Z,74.76
2018-08-31T15:24:27.550Z,74.57
2018-08-31T15:25:37.955Z,74.48
2018-08-31T15:26:48.512Z,73.89
2018-08-31T15:27:58.678Z,73.89
2018-08-31T15:29:08.770Z,74.38
2018-08-31T15:30:18.881Z,74.32
2018-08-31T15:31:29.273Z,74.57
2018-08-31T15:32:38.851Z,74.67
2018-08-31T15:33:48.990Z,74.48
2018-08-31T15:34:59.089Z,74.41
2018-08-31T15:36:09.182Z,74.41
2018-08-31T15:37:19.294Z,74.71
2018-08-31T15:38:29.136Z,74.41
2018-08-31T15:39:39.261Z,73.93
2018-08-31T15:40:49.083Z,73.83
2018-08-31T15:41:59.184Z,73.93
2018-08-31T15:43:09.094Z,74.02
2018-08-31T15:44:19.190Z,74.02
2018-08-31T15:45:29.318Z,73.93
2018-08-31T15:46:39.426Z,73.93
2018-08-31T15:47:49.532Z,74.51